AVA0617 SKRG-SKBQ
Flight info
| Callsign | AVA0617 |
|---|---|
| Flight time | N/A |
| Altitude | 32000 |
| Route | BIVIG1B BIVIG UW3 VOVLU VOVLU4A |
| Aircraft | A320/M-SDE3FGHIRWY/LB1 |
Departure
| Time | 2026-04-22 02:00 |
|---|---|
| Airport | Jose Maria Córdova International Airport (SKRG) |
Arrival
| Time | N/A |
|---|---|
| Airport | Ernesto Cortissoz International Airport (SKBQ) |
| Time | Latitude | Longitude | Altitude | Speed | Heading |
|---|---|---|---|---|---|
| 2026-04-22 01:56 | 6.16776 | -75.42485 | 7013 ft | 9 kts | 182° |
| 2026-04-22 01:57 | 6.16611 | -75.42483 | 7000 ft | 37 kts | 179° |
| 2026-04-22 01:57 | 6.16309 | -75.42494 | 6990 ft | 45 kts | 182° |
| 2026-04-22 01:57 | 6.15983 | -75.42489 | 6986 ft | 46 kts | 181° |
| 2026-04-22 01:57 | 6.15640 | -75.42475 | 6981 ft | 52 kts | 177° |
| 2026-04-22 01:58 | 6.15356 | -75.42475 | 6979 ft | 34 kts | 180° |
| 2026-04-22 01:58 | 6.15057 | -75.42471 | 6978 ft | 50 kts | 179° |
| 2026-04-22 01:58 | 6.14927 | -75.42448 | 6976 ft | 10 kts | 122° |
| 2026-04-22 01:58 | 6.14912 | -75.42412 | 6977 ft | 0 kts | 103° |
| 2026-04-22 01:59 | 6.14913 | -75.42385 | 6977 ft | 18 kts | 80° |
| 2026-04-22 01:59 | 6.14997 | -75.42311 | 6978 ft | 4 kts | 359° |
| 2026-04-22 01:59 | 6.14999 | -75.42311 | 6978 ft | 0 kts | 359° |
| 2026-04-22 01:59 | 6.15179 | -75.42311 | 6979 ft | 61 kts | 1° |
| 2026-04-22 02:00 | 6.15815 | -75.42309 | 6982 ft | 120 kts | 1° |
| 2026-04-22 02:00 | 6.16806 | -75.42317 | 7020 ft | 162 kts | 359° |
| 2026-04-22 02:00 | 6.17916 | -75.42332 | 7671 ft | 155 kts | 360° |
| 2026-04-22 02:00 | 6.18996 | -75.42338 | 8164 ft | 155 kts | 360° |
| 2026-04-22 02:01 | 6.20150 | -75.42339 | 8270 ft | 181 kts | 360° |
| 2026-04-22 02:01 | 6.21440 | -75.42337 | 8678 ft | 193 kts | 360° |
| 2026-04-22 02:01 | 6.22901 | -75.42182 | 8911 ft | 235 kts | 12° |
| 2026-04-22 02:01 | 6.24541 | -75.41354 | 8809 ft | 289 kts | 47° |
| 2026-04-22 02:02 | 6.25490 | -75.39569 | 9832 ft | 294 kts | 74° |
| 2026-04-22 02:02 | 6.26164 | -75.37619 | 10915 ft | 298 kts | 58° |
| 2026-04-22 02:02 | 6.27614 | -75.36152 | 11952 ft | 300 kts | 28° |
| 2026-04-22 02:02 | 6.29593 | -75.35618 | 12929 ft | 303 kts | 358° |
| 2026-04-22 02:03 | 6.31623 | -75.36162 | 13891 ft | 307 kts | 328° |
| 2026-04-22 02:03 | 6.33133 | -75.37671 | 14738 ft | 311 kts | 298° |
| 2026-04-22 02:03 | 6.33716 | -75.39771 | 15526 ft | 316 kts | 269° |
| 2026-04-22 02:03 | 6.33199 | -75.41904 | 16283 ft | 319 kts | 239° |
| 2026-04-22 02:04 | 6.30338 | -75.44131 | 17530 ft | 325 kts | 192° |
| 2026-04-22 02:04 | 6.28085 | -75.44117 | 18286 ft | 328 kts | 163° |
| 2026-04-22 02:04 | 6.26084 | -75.43021 | 18967 ft | 333 kts | 137° |
| 2026-04-22 02:05 | 6.23834 | -75.40871 | 19747 ft | 340 kts | 148° |
| 2026-04-22 02:05 | 6.21734 | -75.39762 | 20433 ft | 344 kts | 151° |
| 2026-04-22 02:05 | 6.20426 | -75.38808 | 20888 ft | 345 kts | 133° |
| 2026-04-22 02:05 | 6.19182 | -75.36800 | 21537 ft | 348 kts | 107° |
| 2026-04-22 02:06 | 6.18949 | -75.34385 | 22132 ft | 352 kts | 81° |
| 2026-04-22 02:06 | 6.19823 | -75.32087 | 22677 ft | 357 kts | 54° |
| 2026-04-22 02:06 | 6.21521 | -75.30243 | 23165 ft | 363 kts | 44° |
| 2026-04-22 02:06 | 6.23358 | -75.28456 | 23674 ft | 368 kts | 44° |
| 2026-04-22 02:07 | 6.25309 | -75.26772 | 24156 ft | 371 kts | 30° |
| 2026-04-22 02:07 | 6.27730 | -75.25923 | 24615 ft | 371 kts | 6° |
| 2026-04-22 02:07 | 6.30326 | -75.25720 | 24978 ft | 377 kts | 7° |
| 2026-04-22 02:07 | 6.32914 | -75.25232 | 25354 ft | 380 kts | 13° |
| 2026-04-22 02:08 | 6.35479 | -75.24707 | 25712 ft | 382 kts | 10° |
| 2026-04-22 02:08 | 6.38115 | -75.24273 | 26052 ft | 385 kts | 6° |
| 2026-04-22 02:08 | 6.40796 | -75.24081 | 26382 ft | 387 kts | 1° |
| 2026-04-22 02:08 | 6.43506 | -75.24074 | 26705 ft | 390 kts | 359° |
| 2026-04-22 02:09 | 6.46233 | -75.24147 | 27032 ft | 392 kts | 359° |
| 2026-04-22 02:09 | 6.48965 | -75.24129 | 27360 ft | 395 kts | 2° |
| 2026-04-22 02:09 | 6.51721 | -75.23986 | 27707 ft | 397 kts | 4° |
| 2026-04-22 02:09 | 6.54480 | -75.23754 | 28053 ft | 400 kts | 6° |
| 2026-04-22 02:10 | 6.57252 | -75.23476 | 28407 ft | 402 kts | 6° |
| 2026-04-22 02:10 | 6.60050 | -75.23185 | 28764 ft | 404 kts | 6° |
| 2026-04-22 02:10 | 6.62871 | -75.22900 | 28952 ft | 412 kts | 6° |
| 2026-04-22 02:10 | 6.65749 | -75.22627 | 29086 ft | 419 kts | 5° |
| 2026-04-22 02:11 | 6.68685 | -75.22365 | 29214 ft | 427 kts | 5° |
| 2026-04-22 02:11 | 6.71668 | -75.22111 | 29347 ft | 433 kts | 5° |
| 2026-04-22 02:11 | 6.74690 | -75.21858 | 29474 ft | 439 kts | 5° |
| 2026-04-22 02:11 | 6.77752 | -75.21600 | 29607 ft | 445 kts | 5° |
| 2026-04-22 02:12 | 6.80861 | -75.21334 | 29734 ft | 450 kts | 5° |
| 2026-04-22 02:12 | 6.83961 | -75.21067 | 29862 ft | 455 kts | 5° |
| 2026-04-22 02:12 | 6.87138 | -75.20792 | 29993 ft | 460 kts | 5° |
| 2026-04-22 02:12 | 6.90344 | -75.20514 | 30122 ft | 465 kts | 5° |
| 2026-04-22 02:13 | 6.93581 | -75.20234 | 30235 ft | 469 kts | 5° |
| 2026-04-22 02:13 | 6.96843 | -75.19952 | 30342 ft | 472 kts | 5° |
| 2026-04-22 02:13 | 7.00129 | -75.19667 | 30456 ft | 475 kts | 5° |
| 2026-04-22 02:13 | 7.03433 | -75.19381 | 30601 ft | 477 kts | 5° |
| 2026-04-22 02:14 | 7.06739 | -75.19112 | 30760 ft | 478 kts | 4° |
| 2026-04-22 02:14 | 7.10069 | -75.18858 | 30920 ft | 479 kts | 4° |
| 2026-04-22 02:14 | 7.13397 | -75.18610 | 31066 ft | 481 kts | 4° |
| 2026-04-22 02:14 | 7.16736 | -75.18365 | 31205 ft | 482 kts | 4° |
| 2026-04-22 02:15 | 7.20085 | -75.18117 | 31338 ft | 483 kts | 4° |
| 2026-04-22 02:15 | 7.23441 | -75.17868 | 31453 ft | 484 kts | 4° |
| 2026-04-22 02:15 | 7.26795 | -75.17614 | 31615 ft | 484 kts | 4° |
| 2026-04-22 02:15 | 7.30146 | -75.17356 | 31795 ft | 483 kts | 4° |
| 2026-04-22 02:16 | 7.33499 | -75.17099 | 31961 ft | 483 kts | 4° |
| 2026-04-22 02:16 | 7.40242 | -75.16586 | 32023 ft | 488 kts | 4° |
| 2026-04-22 02:17 | 7.47009 | -75.16066 | 32011 ft | 493 kts | 4° |
| 2026-04-22 02:17 | 7.53869 | -75.15544 | 32006 ft | 495 kts | 4° |
| 2026-04-22 02:18 | 7.60744 | -75.15015 | 31998 ft | 497 kts | 4° |
| 2026-04-22 02:18 | 7.67666 | -75.14479 | 31992 ft | 498 kts | 4° |
| 2026-04-22 02:19 | 7.74548 | -75.13955 | 31990 ft | 499 kts | 4° |
| 2026-04-22 02:19 | 7.81483 | -75.13426 | 31987 ft | 499 kts | 4° |
| 2026-04-22 02:20 | 7.88422 | -75.12891 | 31983 ft | 499 kts | 4° |
| 2026-04-22 02:20 | 7.95350 | -75.12359 | 31982 ft | 499 kts | 4° |
| 2026-04-22 02:21 | 8.02288 | -75.11827 | 31982 ft | 499 kts | 4° |
| 2026-04-22 02:21 | 8.09212 | -75.11300 | 31982 ft | 499 kts | 4° |
| 2026-04-22 02:22 | 8.16112 | -75.10771 | 31983 ft | 499 kts | 4° |
| 2026-04-22 02:22 | 8.23059 | -75.10234 | 31980 ft | 499 kts | 4° |
| 2026-04-22 02:23 | 8.29998 | -75.09696 | 31979 ft | 499 kts | 4° |
| 2026-04-22 02:23 | 8.36899 | -75.09167 | 31980 ft | 499 kts | 4° |
| 2026-04-22 02:24 | 8.43850 | -75.08634 | 31982 ft | 500 kts | 4° |
| 2026-04-22 02:24 | 8.50780 | -75.08091 | 31981 ft | 500 kts | 4° |
| 2026-04-22 02:25 | 8.57720 | -75.07549 | 31981 ft | 500 kts | 4° |
| 2026-04-22 02:25 | 8.64669 | -75.07016 | 31982 ft | 500 kts | 4° |
| 2026-04-22 02:26 | 8.71567 | -75.06493 | 31982 ft | 500 kts | 4° |
| 2026-04-22 02:26 | 8.78513 | -75.05963 | 31981 ft | 500 kts | 4° |
| 2026-04-22 02:27 | 8.85457 | -75.05424 | 31983 ft | 500 kts | 4° |
| 2026-04-22 02:27 | 8.92420 | -75.04889 | 31981 ft | 500 kts | 4° |
| 2026-04-22 02:28 | 8.99368 | -75.04362 | 31983 ft | 501 kts | 4° |
| 2026-04-22 02:28 | 9.06314 | -75.03822 | 31984 ft | 501 kts | 4° |
| 2026-04-22 02:29 | 9.13271 | -75.03271 | 31822 ft | 505 kts | 4° |
| 2026-04-22 02:29 | 9.16784 | -75.02997 | 31690 ft | 507 kts | 4° |
| 2026-04-22 02:29 | 9.17930 | -75.02907 | 31653 ft | 508 kts | 4° |